createdAt,value
2023-05-14T00:02:07.255Z,76.23
2023-05-14T00:04:34.794Z,75.65
2023-05-14T00:07:02.313Z,75.83
2023-05-14T00:09:30.587Z,75.39
2023-05-14T00:11:58.273Z,75.66
2023-05-14T00:14:25.902Z,76.03
2023-05-14T00:16:53.436Z,75.48
2023-05-14T00:19:21.746Z,75.90
2023-05-14T00:21:49.344Z,75.71
2023-05-14T00:24:16.910Z,75.81
2023-05-14T00:26:44.577Z,75.93
2023-05-14T00:29:12.182Z,76.05
2023-05-14T00:31:39.895Z,77.65
2023-05-14T00:34:07.752Z,76.75
2023-05-14T00:36:35.697Z,76.21
2023-05-14T00:39:03.938Z,76.03
2023-05-14T00:41:32.593Z,75.77
2023-05-14T00:44:00.192Z,76.60
2023-05-14T00:46:28.134Z,75.99
2023-05-14T00:48:56.045Z,75.91
2023-05-14T00:51:23.886Z,75.80
2023-05-14T00:53:52.362Z,76.33
2023-05-14T00:56:20.025Z,78.41
2023-05-14T00:58:47.580Z,78.10
2023-05-14T01:01:15.463Z,81.11
2023-05-14T01:03:43.446Z,80.42
2023-05-14T01:06:11.992Z,79.26
2023-05-14T01:09:04.645Z,80.21
2023-05-14T01:11:54.685Z,84.30
2023-05-14T01:14:24.764Z,92.21
2023-05-14T01:16:56.788Z,88.76
2023-05-14T01:19:37.785Z,88.59
2023-05-14T01:22:05.876Z,89.53
2023-05-14T01:24:33.683Z,89.42
2023-05-14T01:27:29.887Z,85.30
2023-05-14T01:30:14.194Z,83.41
2023-05-14T01:32:44.948Z,84.17
2023-05-14T01:35:13.404Z,82.88
2023-05-14T01:37:42.307Z,81.49
2023-05-14T01:40:13.448Z,80.62
2023-05-14T01:42:42.234Z,80.42
2023-05-14T01:45:10.687Z,79.97
2023-05-14T01:47:38.356Z,80.00
2023-05-14T01:50:06.474Z,80.14
2023-05-14T01:52:35.104Z,80.10
2023-05-14T01:55:02.810Z,80.19
2023-05-14T01:57:31.282Z,79.72
2023-05-14T01:59:59.089Z,79.63
2023-05-14T02:02:30.663Z,79.34
2023-05-14T02:04:58.470Z,79.75
2023-05-14T02:07:26.032Z,79.84
2023-05-14T02:09:53.581Z,79.72
2023-05-14T02:12:22.512Z,80.06
2023-05-14T02:14:50.620Z,79.56
2023-05-14T02:17:18.453Z,79.52
2023-05-14T02:19:47.591Z,79.47
2023-05-14T02:22:15.629Z,79.32
2023-05-14T02:24:43.183Z,79.01
2023-05-14T02:27:12.903Z,79.82
2023-05-14T02:29:40.710Z,79.73
2023-05-14T02:32:08.442Z,79.35
2023-05-14T02:34:36.142Z,80.00
2023-05-14T02:37:03.929Z,80.54
2023-05-14T02:39:32.683Z,83.11
2023-05-14T02:42:00.412Z,81.42
2023-05-14T02:44:28.081Z,81.97
2023-05-14T02:46:55.740Z,81.22
2023-05-14T02:49:23.685Z,81.45
2023-05-14T02:51:51.328Z,80.19
2023-05-14T02:54:18.896Z,80.03
2023-05-14T02:56:47.233Z,79.80
2023-05-14T02:59:15.001Z,80.80
2023-05-14T03:01:43.146Z,80.45
2023-05-14T03:04:11.243Z,80.74
2023-05-14T03:06:38.817Z,81.20
2023-05-14T03:09:07.528Z,81.34
2023-05-14T03:11:35.545Z,81.53
2023-05-14T03:14:03.149Z,81.76
2023-05-14T03:16:31.292Z,81.57
2023-05-14T03:18:58.934Z,81.45
2023-05-14T03:21:26.560Z,80.93
2023-05-14T03:23:54.130Z,81.23
2023-05-14T03:26:21.731Z,83.12
2023-05-14T03:28:50.988Z,83.96
2023-05-14T03:31:18.946Z,81.70
2023-05-14T03:33:46.765Z,80.66
2023-05-14T03:36:14.316Z,79.58
2023-05-14T03:38:41.888Z,79.58
2023-05-14T03:41:09.615Z,79.21
2023-05-14T03:43:37.310Z,78.96
2023-05-14T03:46:04.937Z,80.17
2023-05-14T03:48:33.962Z,80.00
2023-05-14T03:51:01.586Z,80.37
2023-05-14T03:53:29.071Z,82.21
2023-05-14T03:55:56.932Z,82.07
2023-05-14T03:58:24.584Z,80.04
2023-05-14T04:00:52.205Z,77.46
2023-05-14T04:03:19.920Z,76.04
2023-05-14T04:05:47.764Z,74.71
2023-05-14T04:08:15.465Z,73.71
2023-05-14T04:10:43.512Z,73.96
2023-05-14T04:13:11.184Z,75.22
2023-05-14T04:15:40.626Z,78.82
2023-05-14T04:18:09.441Z,85.93
2023-05-14T04:20:37.307Z,89.65
2023-05-14T04:23:04.890Z,91.57
2023-05-14T04:25:32.459Z,88.76
2023-05-14T04:28:00.614Z,91.90
2023-05-14T04:30:28.314Z,89.84
2023-05-14T04:32:55.883Z,88.15
2023-05-14T04:35:24.796Z,87.67
2023-05-14T04:37:52.753Z,87.72
2023-05-14T04:40:20.398Z,88.27
2023-05-14T04:42:47.854Z,87.78
2023-05-14T04:45:16.757Z,86.19
2023-05-14T04:47:45.174Z,82.05
2023-05-14T04:50:12.792Z,82.33
2023-05-14T04:52:40.605Z,80.62
2023-05-14T04:55:08.733Z,77.99
2023-05-14T04:57:37.153Z,79.16
2023-05-14T05:00:09.580Z,78.19
2023-05-14T05:02:38.109Z,78.40
2023-05-14T05:05:06.013Z,80.50
2023-05-14T05:07:33.992Z,80.28
2023-05-14T05:10:01.701Z,79.84
2023-05-14T05:12:30.286Z,79.37
2023-05-14T05:14:58.083Z,79.84
2023-05-14T05:17:25.692Z,78.46
2023-05-14T05:19:53.249Z,78.23
2023-05-14T05:22:21.030Z,76.32
2023-05-14T05:24:49.912Z,73.32
2023-05-14T05:27:17.741Z,71.79
2023-05-14T05:29:46.307Z,66.95
2023-05-14T05:32:13.897Z,64.93
2023-05-14T05:34:41.866Z,64.29
2023-05-14T05:37:12.791Z,64.93
2023-05-14T05:39:40.611Z,65.52
2023-05-14T05:42:08.308Z,65.38
2023-05-14T05:44:35.804Z,66.46
2023-05-14T05:47:03.414Z,66.42
2023-05-14T05:49:31.441Z,66.11
2023-05-14T05:51:58.954Z,65.79
2023-05-14T05:54:27.265Z,64.62
2023-05-14T05:56:54.761Z,66.19
2023-05-14T05:59:22.295Z,66.51
2023-05-14T06:01:49.873Z,67.24
2023-05-14T06:04:17.721Z,67.11
2023-05-14T06:06:45.546Z,65.87
2023-05-14T06:09:13.442Z,65.19
2023-05-14T06:11:41.059Z,65.03
2023-05-14T06:14:08.447Z,65.33
2023-05-14T06:16:35.967Z,66.29
2023-05-14T06:19:03.902Z,65.30
2023-05-14T06:21:31.482Z,64.87
2023-05-14T06:23:58.930Z,65.16
2023-05-14T06:26:26.483Z,64.74
2023-05-14T06:28:54.703Z,64.59
2023-05-14T06:31:22.369Z,63.52
2023-05-14T06:33:49.924Z,62.96
2023-05-14T06:36:17.464Z,62.99
2023-05-14T06:38:45.010Z,62.85
2023-05-14T06:41:12.499Z,62.59
2023-05-14T06:43:40.177Z,62.21
2023-05-14T06:46:07.723Z,61.47
2023-05-14T06:48:35.257Z,60.56
2023-05-14T06:51:03.653Z,60.22
2023-05-14T06:53:31.850Z,60.05
2023-05-14T06:55:59.482Z,59.96
2023-05-14T06:58:27.030Z,59.29
2023-05-14T07:00:54.561Z,58.81
2023-05-14T07:03:22.718Z,58.01
2023-05-14T07:05:50.292Z,57.12
2023-05-14T07:08:18.563Z,56.65
2023-05-14T07:10:46.142Z,56.61
2023-05-14T07:13:14.166Z,55.65
2023-05-14T07:15:41.713Z,55.10
2023-05-14T07:18:09.301Z,54.77
2023-05-14T07:20:36.820Z,54.07
2023-05-14T07:23:04.334Z,53.34
2023-05-14T07:25:32.771Z,52.53
2023-05-14T07:28:00.447Z,50.79
2023-05-14T07:30:27.962Z,50.68
2023-05-14T07:32:55.717Z,49.27
2023-05-14T07:35:23.571Z,48.67
2023-05-14T07:37:51.415Z,48.25
2023-05-14T07:40:19.013Z,47.85
2023-05-14T07:42:46.530Z,47.48
2023-05-14T07:45:13.966Z,47.09
2023-05-14T07:47:41.755Z,46.89
2023-05-14T07:50:09.891Z,46.39
2023-05-14T07:52:37.691Z,46.49
2023-05-14T07:55:06.179Z,45.28
2023-05-14T07:57:34.711Z,43.30
2023-05-14T08:00:02.255Z,43.21
2023-05-14T08:02:41.312Z,42.64
2023-05-14T08:05:09.981Z,41.22
2023-05-14T08:07:37.575Z,40.85
2023-05-14T08:10:06.925Z,40.69
2023-05-14T08:12:34.515Z,41.36
2023-05-14T08:15:02.544Z,41.11
2023-05-14T08:17:30.504Z,38.51
2023-05-14T08:19:57.958Z,38.57
2023-05-14T08:22:25.568Z,39.07
2023-05-14T08:24:53.075Z,38.73
2023-05-14T08:27:21.602Z,38.42
2023-05-14T08:29:49.128Z,38.85
2023-05-14T08:32:23.370Z,39.11
2023-05-14T08:34:52.010Z,39.33
2023-05-14T08:37:19.721Z,39.28
2023-05-14T08:39:47.316Z,39.00
2023-05-14T08:42:17.081Z,39.11
2023-05-14T08:45:04.020Z,39.31
2023-05-14T08:47:32.189Z,38.91
2023-05-14T08:50:05.269Z,38.46
2023-05-14T08:52:34.470Z,38.57
2023-05-14T08:55:06.558Z,37.51
2023-05-14T08:57:34.856Z,37.08
2023-05-14T09:00:23.457Z,36.63
2023-05-14T09:02:51.564Z,37.10
2023-05-14T09:05:20.397Z,36.76
2023-05-14T09:07:48.266Z,36.35
2023-05-14T09:10:17.465Z,36.70
2023-05-14T09:12:45.196Z,36.63
2023-05-14T09:15:13.118Z,36.32
2023-05-14T09:17:41.124Z,36.28
2023-05-14T09:20:09.825Z,36.53
2023-05-14T09:22:39.117Z,36.49
2023-05-14T09:25:09.660Z,36.34
2023-05-14T09:27:37.999Z,35.65
2023-05-14T09:30:11.078Z,35.53
2023-05-14T09:32:46.398Z,34.63
2023-05-14T09:35:17.999Z,34.83
2023-05-14T09:37:47.935Z,33.84
2023-05-14T09:40:16.495Z,33.13
2023-05-14T09:42:44.890Z,33.38
2023-05-14T09:45:12.931Z,33.38
2023-05-14T09:47:41.454Z,33.36
2023-05-14T09:50:09.755Z,32.55
2023-05-14T09:52:38.972Z,32.87
2023-05-14T09:55:07.066Z,33.20
2023-05-14T09:57:35.750Z,32.71
2023-05-14T10:00:03.990Z,32.19
2023-05-14T10:02:38.185Z,32.37
2023-05-14T10:05:07.565Z,32.62
2023-05-14T10:07:44.647Z,32.50
2023-05-14T10:10:17.056Z,32.00
2023-05-14T10:12:58.552Z,31.80
2023-05-14T10:15:35.545Z,31.54
2023-05-14T10:18:10.331Z,31.94
2023-05-14T10:20:40.139Z,32.07
2023-05-14T10:23:07.923Z,32.59
2023-05-14T10:25:37.657Z,32.13
2023-05-14T10:28:06.299Z,32.13
2023-05-14T10:30:33.893Z,31.49
2023-05-14T10:33:18.873Z,31.22
2023-05-14T10:35:57.245Z,32.31
2023-05-14T10:38:33.910Z,32.66
2023-05-14T10:41:07.669Z,32.63
2023-05-14T10:43:40.185Z,32.44
2023-05-14T10:46:09.585Z,31.03
2023-05-14T10:48:38.057Z,31.24
2023-05-14T10:51:09.135Z,31.51
2023-05-14T10:53:43.170Z,30.86
2023-05-14T10:56:14.768Z,30.67
2023-05-14T10:58:44.060Z,30.39
2023-05-14T11:01:12.885Z,30.12
2023-05-14T11:03:45.689Z,30.09
2023-05-14T11:06:15.118Z,30.95
2023-05-14T11:08:44.012Z,35.12
2023-05-14T11:11:11.735Z,36.92
2023-05-14T11:13:41.718Z,36.91
2023-05-14T11:16:21.700Z,37.85
2023-05-14T11:19:01.875Z,38.00
2023-05-14T11:21:30.506Z,39.14
2023-05-14T11:24:01.230Z,40.12
2023-05-14T11:26:28.899Z,48.10
2023-05-14T11:28:56.562Z,53.15
2023-05-14T11:31:24.817Z,46.38
2023-05-14T11:33:53.638Z,47.47
2023-05-14T11:36:21.920Z,48.35
2023-05-14T11:38:51.444Z,43.67
2023-05-14T11:41:21.607Z,42.21
2023-05-14T11:43:49.463Z,46.20
2023-05-14T11:46:21.968Z,44.76
2023-05-14T11:48:49.609Z,37.35
2023-05-14T11:51:17.228Z,40.23
2023-05-14T11:53:45.565Z,41.60
2023-05-14T11:56:13.141Z,41.37
2023-05-14T11:58:40.816Z,41.65
2023-05-14T12:01:13.827Z,42.62
2023-05-14T12:03:42.456Z,41.46
2023-05-14T12:06:10.204Z,42.35
2023-05-14T12:08:38.515Z,43.73
2023-05-14T12:11:06.102Z,41.75
2023-05-14T12:13:33.805Z,43.87
2023-05-14T12:16:02.780Z,42.87
2023-05-14T12:18:32.467Z,40.87
2023-05-14T12:21:04.936Z,39.32
2023-05-14T12:23:32.985Z,37.12
2023-05-14T12:26:08.801Z,35.85
2023-05-14T12:28:43.403Z,39.00
2023-05-14T12:31:11.311Z,37.87
2023-05-14T12:33:38.841Z,37.47
2023-05-14T12:38:37.799Z,36.83
2023-05-14T12:41:05.390Z,37.33
2023-05-14T12:43:33.024Z,37.62
2023-05-14T12:46:00.977Z,36.67
2023-05-14T12:48:28.641Z,37.31
2023-05-14T12:50:56.171Z,36.85
2023-05-14T12:53:23.859Z,36.60
2023-05-14T12:55:51.532Z,35.10
2023-05-14T12:58:19.039Z,35.05
2023-05-14T13:00:46.811Z,35.77
2023-05-14T13:03:14.341Z,35.02
2023-05-14T13:05:42.140Z,36.43
2023-05-14T13:08:10.240Z,35.95
2023-05-14T13:10:37.837Z,35.24
2023-05-14T13:13:05.327Z,35.86
2023-05-14T13:15:33.776Z,36.21
2023-05-14T13:18:01.358Z,34.73
2023-05-14T13:20:30.999Z,35.12
2023-05-14T13:22:58.479Z,35.46
2023-05-14T13:25:26.580Z,36.40
2023-05-14T13:27:54.315Z,36.36
2023-05-14T13:30:22.060Z,36.74
2023-05-14T13:32:50.073Z,36.71
2023-05-14T13:35:17.829Z,37.23
2023-05-14T13:37:45.377Z,37.20
2023-05-14T13:40:14.129Z,37.81
2023-05-14T13:42:41.984Z,38.29
2023-05-14T13:45:10.010Z,38.23
2023-05-14T13:47:38.056Z,37.92
2023-05-14T13:50:06.605Z,36.30
2023-05-14T13:52:34.576Z,36.67
2023-05-14T13:55:02.094Z,35.57
2023-05-14T13:57:29.782Z,35.23
2023-05-14T13:59:57.345Z,35.64
2023-05-14T14:02:24.849Z,34.43
2023-05-14T14:04:52.531Z,34.34
2023-05-14T14:07:22.724Z,34.29
2023-05-14T14:09:50.781Z,33.92
2023-05-14T14:12:18.362Z,33.63
2023-05-14T14:14:46.058Z,33.19
2023-05-14T14:17:13.541Z,32.92
2023-05-14T14:19:41.063Z,32.34
2023-05-14T14:22:08.620Z,32.34
2023-05-14T14:24:36.643Z,32.83
2023-05-14T14:27:04.677Z,32.42
2023-05-14T14:29:32.459Z,31.84
2023-05-14T14:32:00.245Z,32.46
2023-05-14T14:34:27.933Z,32.89
2023-05-14T14:36:55.495Z,32.74
2023-05-14T14:39:25.398Z,32.64
2023-05-14T14:41:53.277Z,32.18
2023-05-14T14:44:20.778Z,32.79
2023-05-14T14:46:48.392Z,32.75
2023-05-14T14:49:15.926Z,32.89
2023-05-14T14:51:43.711Z,32.94
2023-05-14T14:54:11.273Z,33.06
2023-05-14T14:56:39.275Z,31.91
2023-05-14T14:59:08.264Z,31.68
2023-05-14T15:01:36.148Z,31.98
2023-05-14T15:04:03.936Z,31.92
2023-05-14T15:06:31.699Z,32.51
2023-05-14T15:08:59.735Z,31.97
2023-05-14T15:11:28.953Z,31.03
2023-05-14T15:13:56.490Z,31.05
2023-05-14T15:16:24.178Z,30.84
2023-05-14T15:18:51.857Z,31.39
2023-05-14T15:21:19.379Z,32.40
2023-05-14T15:23:46.963Z,32.88
2023-05-14T15:26:14.677Z,33.93
2023-05-14T15:28:42.360Z,33.87
2023-05-14T15:31:11.082Z,34.50
2023-05-14T15:33:38.733Z,34.85
2023-05-14T15:36:06.939Z,34.48
2023-05-14T15:38:34.853Z,34.63
2023-05-14T15:41:02.488Z,34.57
2023-05-14T15:43:30.128Z,34.66
2023-05-14T15:45:57.686Z,35.45
2023-05-14T15:48:25.458Z,35.29
2023-05-14T15:50:53.485Z,35.40
2023-05-14T15:53:21.161Z,35.45
2023-05-14T15:55:49.059Z,35.35
2023-05-14T15:58:16.760Z,35.93
2023-05-14T16:00:44.262Z,35.82
2023-05-14T16:03:12.459Z,35.57
2023-05-14T16:05:40.411Z,35.72
2023-05-14T16:08:08.467Z,35.90
2023-05-14T16:10:36.469Z,36.07
2023-05-14T16:13:04.193Z,36.33
2023-05-14T16:15:31.820Z,36.58
2023-05-14T16:18:00.433Z,36.56
2023-05-14T16:20:28.078Z,36.83
2023-05-14T16:22:55.647Z,36.86
2023-05-14T16:25:23.188Z,37.10
2023-05-14T16:27:50.793Z,37.45
2023-05-14T16:30:18.426Z,37.45
2023-05-14T16:32:49.500Z,37.96
2023-05-14T16:35:17.161Z,38.14
2023-05-14T16:37:44.981Z,37.95
2023-05-14T16:40:12.975Z,38.32
2023-05-14T16:42:40.656Z,38.57
2023-05-14T16:45:08.841Z,38.80
2023-05-14T16:47:37.392Z,39.01
2023-05-14T16:50:05.181Z,38.97
2023-05-14T16:52:33.096Z,39.08
2023-05-14T16:55:00.618Z,39.37
2023-05-14T16:57:28.157Z,39.79
2023-05-14T16:59:56.555Z,39.84
2023-05-14T17:02:24.129Z,39.92
2023-05-14T17:04:51.808Z,39.35
2023-05-14T17:07:19.768Z,39.75
2023-05-14T17:09:47.440Z,39.88
2023-05-14T17:12:14.993Z,40.09
2023-05-14T17:14:42.788Z,39.99
2023-05-14T17:17:10.486Z,40.40
2023-05-14T17:19:38.048Z,40.68
2023-05-14T17:22:06.071Z,41.10
2023-05-14T17:24:34.716Z,41.07
2023-05-14T17:27:02.312Z,41.92
2023-05-14T17:29:29.894Z,42.35
2023-05-14T17:31:57.875Z,42.38
2023-05-14T17:34:25.669Z,42.22
2023-05-14T17:36:53.228Z,42.12
2023-05-14T17:39:20.796Z,42.29
2023-05-14T17:41:48.479Z,42.21
2023-05-14T17:44:16.041Z,42.49
2023-05-14T17:46:44.815Z,42.89
2023-05-14T17:49:12.490Z,42.84
2023-05-14T17:51:40.069Z,42.97
2023-05-14T17:54:07.646Z,42.75
2023-05-14T17:56:36.136Z,43.05
2023-05-14T17:59:03.891Z,42.88
2023-05-14T18:01:32.011Z,43.33
2023-05-14T18:03:59.707Z,43.17
2023-05-14T18:06:27.306Z,43.51
2023-05-14T18:08:54.909Z,43.23
2023-05-14T18:11:23.578Z,43.21
2023-05-14T18:13:51.213Z,42.92
2023-05-14T18:16:18.806Z,42.82
2023-05-14T18:18:46.811Z,42.84
2023-05-14T18:21:14.375Z,42.90
2023-05-14T18:23:42.000Z,42.99
2023-05-14T18:26:09.687Z,42.76
2023-05-14T18:28:37.978Z,42.87
2023-05-14T18:31:05.548Z,42.90
2023-05-14T18:33:33.301Z,43.12
2023-05-14T18:36:01.689Z,43.32
2023-05-14T18:38:29.549Z,43.24
2023-05-14T18:40:57.381Z,43.17
2023-05-14T18:43:25.229Z,43.36
2023-05-14T18:45:52.752Z,43.36
2023-05-14T18:48:21.055Z,43.55
2023-05-14T18:50:48.619Z,44.02
2023-05-14T18:53:16.257Z,45.03
2023-05-14T18:55:43.904Z,50.15
2023-05-14T18:58:12.141Z,51.17
2023-05-14T19:00:39.731Z,51.63
2023-05-14T19:03:07.586Z,51.83
2023-05-14T19:05:35.417Z,52.25
2023-05-14T19:08:03.142Z,52.26
2023-05-14T19:10:31.161Z,53.09
2023-05-14T19:12:58.799Z,53.28
2023-05-14T19:15:26.510Z,52.89
2023-05-14T19:17:54.490Z,52.89
2023-05-14T19:20:22.164Z,53.33
2023-05-14T19:23:00.772Z,53.50
2023-05-14T19:25:28.517Z,54.26
2023-05-14T19:28:01.595Z,54.42
2023-05-14T19:30:30.686Z,54.49
2023-05-14T19:33:03.383Z,54.33
2023-05-14T19:35:32.832Z,55.26
2023-05-14T19:38:03.379Z,55.58
2023-05-14T19:40:32.791Z,56.16
2023-05-14T19:43:02.363Z,56.37
2023-05-14T19:45:30.770Z,56.34
2023-05-14T19:47:58.363Z,56.52
2023-05-14T19:50:25.886Z,58.38
2023-05-14T19:52:54.044Z,59.23
2023-05-14T19:55:21.864Z,60.20
2023-05-14T19:57:49.421Z,59.15
2023-05-14T20:00:17.244Z,59.63
2023-05-14T20:02:48.058Z,60.24
2023-05-14T20:05:16.728Z,61.22
2023-05-14T20:07:44.902Z,60.31
2023-05-14T20:10:12.899Z,60.32
2023-05-14T20:12:40.796Z,60.24
2023-05-14T20:15:09.472Z,60.20
2023-05-14T20:17:39.084Z,59.57
2023-05-14T20:20:08.397Z,59.59
2023-05-14T20:22:36.173Z,59.64
2023-05-14T20:25:03.975Z,60.08
2023-05-14T20:27:32.767Z,60.40
2023-05-14T20:30:00.332Z,64.84
2023-05-14T20:32:28.020Z,67.54
2023-05-14T20:34:55.593Z,66.93
2023-05-14T20:37:24.134Z,66.61
2023-05-14T20:39:51.708Z,67.05
2023-05-14T20:42:28.301Z,68.17
2023-05-14T20:44:56.359Z,69.34
2023-05-14T20:47:26.685Z,69.11
2023-05-14T20:49:54.464Z,69.50
2023-05-14T20:52:22.842Z,68.81
2023-05-14T20:54:50.509Z,70.03
2023-05-14T20:57:18.607Z,68.25
2023-05-14T20:59:46.489Z,66.43
2023-05-14T21:02:14.076Z,64.60
2023-05-14T21:04:41.870Z,65.00
2023-05-14T21:07:09.620Z,63.70
2023-05-14T21:09:38.063Z,63.35
2023-05-14T21:12:06.180Z,63.11
2023-05-14T21:14:33.739Z,62.27
2023-05-14T21:17:01.307Z,61.86
2023-05-14T21:19:29.064Z,61.98
2023-05-14T21:21:56.865Z,61.64
2023-05-14T21:24:24.389Z,61.30
2023-05-14T21:26:53.569Z,61.66
2023-05-14T21:29:21.238Z,66.18
2023-05-14T21:31:48.815Z,74.78
2023-05-14T21:34:16.795Z,85.09
2023-05-14T21:36:44.451Z,95.61
2023-05-14T21:39:11.971Z,97.75
2023-05-14T21:41:39.491Z,100.00
2023-05-14T21:44:07.003Z,100.00
2023-05-14T21:46:35.034Z,100.00
2023-05-14T21:49:02.670Z,100.00
2023-05-14T21:51:32.151Z,100.00
2023-05-14T21:53:59.657Z,100.00
2023-05-14T21:56:27.509Z,100.00
2023-05-14T21:58:56.127Z,95.92
2023-05-14T22:01:24.174Z,94.92
2023-05-14T22:03:51.803Z,90.33
2023-05-14T22:06:19.412Z,85.54
2023-05-14T22:08:46.999Z,80.30
2023-05-14T22:11:14.523Z,79.45
2023-05-14T22:13:43.261Z,76.58
2023-05-14T22:16:14.456Z,74.78
2023-05-14T22:18:43.366Z,74.04
2023-05-14T22:21:11.022Z,74.38
2023-05-14T22:23:38.950Z,75.31
2023-05-14T22:26:06.495Z,83.77
2023-05-14T22:28:34.008Z,93.50
2023-05-14T22:31:02.223Z,100.00
2023-05-14T22:33:30.046Z,100.00
2023-05-14T22:35:57.585Z,100.00
2023-05-14T22:38:25.097Z,100.00
2023-05-14T22:40:52.790Z,100.00
2023-05-14T22:43:20.388Z,100.00
2023-05-14T22:45:47.930Z,100.00
2023-05-14T22:48:15.890Z,100.00
2023-05-14T22:50:43.615Z,100.00
2023-05-14T22:53:11.147Z,100.00
2023-05-14T22:55:39.114Z,100.00
2023-05-14T22:58:10.389Z,100.00
2023-05-14T23:00:37.976Z,100.00
2023-05-14T23:03:05.607Z,100.00
2023-05-14T23:05:33.404Z,100.00
2023-05-14T23:08:01.043Z,100.00
2023-05-14T23:10:29.006Z,100.00
2023-05-14T23:12:56.737Z,100.00
2023-05-14T23:15:24.531Z,100.00
2023-05-14T23:17:52.348Z,100.00
2023-05-14T23:20:19.982Z,100.00
2023-05-14T23:22:47.717Z,100.00
2023-05-14T23:25:15.347Z,100.00
2023-05-14T23:27:42.976Z,100.00
2023-05-14T23:30:11.013Z,100.00
2023-05-14T23:32:38.639Z,100.00
2023-05-14T23:35:06.388Z,99.80
2023-05-14T23:37:34.012Z,97.65
2023-05-14T23:40:01.817Z,94.50
2023-05-14T23:42:30.002Z,95.35
2023-05-14T23:44:57.457Z,96.51
2023-05-14T23:47:25.266Z,98.48
2023-05-14T23:49:57.206Z,100.00
2023-05-14T23:52:25.230Z,100.00
2023-05-14T23:54:53.483Z,100.00
2023-05-14T23:57:21.191Z,100.00
2023-05-14T23:59:48.805Z,100.00
